createdAt,value
2022-08-17T00:01:21.427Z,99626.01
2022-08-17T00:03:52.570Z,99625.86
2022-08-17T00:06:26.535Z,99630.53
2022-08-17T00:08:57.810Z,99623.33
2022-08-17T00:11:28.817Z,99623.26
2022-08-17T00:14:00.274Z,99621.51
2022-08-17T00:16:55.756Z,99615.47
2022-08-17T00:19:08.384Z,99610.69
2022-08-17T00:22:28.615Z,99609.38
2022-08-17T00:24:07.384Z,99618.78
2022-08-17T00:26:44.808Z,99616.61
2022-08-17T00:29:07.693Z,99611.76
2022-08-17T00:31:36.688Z,99617.31
2022-08-17T00:34:09.317Z,99614.48
2022-08-17T00:36:38.431Z,99622.12
2022-08-17T00:39:07.169Z,99619.41
2022-08-17T00:41:35.946Z,99623.45
2022-08-17T00:44:07.001Z,99625.14
2022-08-17T00:46:38.213Z,99625.50
2022-08-17T00:49:07.716Z,99623.33
2022-08-17T00:51:37.960Z,99624.81
2022-08-17T00:54:08.452Z,99628.00
2022-08-17T00:56:44.822Z,99623.67
2022-08-17T00:59:14.944Z,99629.18
2022-08-17T01:01:43.751Z,99623.71
2022-08-17T01:04:13.965Z,99621.72
2022-08-17T01:06:43.670Z,99624.23
2022-08-17T01:09:12.411Z,99626.08
2022-08-17T01:11:41.746Z,99626.93
2022-08-17T01:14:10.937Z,99623.77
2022-08-17T01:16:40.153Z,99627.13
2022-08-17T01:19:13.101Z,99625.13
2022-08-17T01:21:46.279Z,99623.61
2022-08-17T01:24:15.289Z,99628.96
2022-08-17T01:26:44.909Z,99618.25
2022-08-17T01:29:13.644Z,99618.98
2022-08-17T01:31:45.049Z,99622.34
2022-08-17T01:34:14.562Z,99613.64
2022-08-17T01:36:46.070Z,99619.17
2022-08-17T01:39:16.317Z,99616.67
2022-08-17T01:41:46.307Z,99608.66
2022-08-17T01:44:17.716Z,99610.66
2022-08-17T01:46:46.435Z,99609.48
2022-08-17T01:49:16.202Z,99615.67
2022-08-17T01:51:44.999Z,99614.02
2022-08-17T01:54:15.243Z,99619.21
2022-08-17T01:56:47.532Z,99625.11
2022-08-17T01:59:16.784Z,99623.95
2022-08-17T02:01:46.232Z,99622.61
2022-08-17T02:04:16.775Z,99623.95
2022-08-17T02:06:53.451Z,99618.61
2022-08-17T02:09:16.943Z,99623.11
2022-08-17T02:11:46.410Z,99622.73
2022-08-17T02:14:16.533Z,99617.72
2022-08-17T02:16:45.380Z,99612.36
2022-08-17T02:19:16.034Z,99611.24
2022-08-17T02:21:46.413Z,99619.27
2022-08-17T02:24:59.731Z,99617.59
2022-08-17T02:26:56.737Z,99612.11
2022-08-17T02:29:26.633Z,99610.60
2022-08-17T02:31:56.235Z,99606.94
2022-08-17T02:34:25.745Z,99607.61
2022-08-17T02:36:55.542Z,99601.30
2022-08-17T02:39:24.357Z,99601.13
2022-08-17T02:41:55.780Z,99600.97
2022-08-17T02:44:39.481Z,99605.50
2022-08-17T02:46:55.415Z,99605.33
2022-08-17T02:49:25.216Z,99604.66
2022-08-17T02:51:53.979Z,99610.84
2022-08-17T02:54:41.291Z,99608.69
2022-08-17T02:56:53.186Z,99615.58
2022-08-17T02:59:23.562Z,99617.58
2022-08-17T03:01:53.811Z,99619.06
2022-08-17T03:04:23.170Z,99619.39
2022-08-17T03:06:51.910Z,99615.22
2022-08-17T03:09:21.758Z,99617.89
2022-08-17T03:11:51.932Z,99614.22
2022-08-17T03:14:26.202Z,99609.38
2022-08-17T03:16:52.689Z,99613.88
2022-08-17T03:19:21.429Z,99610.70
2022-08-17T03:21:55.034Z,99612.72
2022-08-17T03:24:20.610Z,99606.38
2022-08-17T03:26:50.986Z,99618.39
2022-08-17T03:29:19.787Z,99616.06
2022-08-17T03:31:49.403Z,99622.44
2022-08-17T03:34:19.125Z,99627.41
2022-08-17T03:36:47.870Z,99629.42
2022-08-17T03:39:16.678Z,99631.80
2022-08-17T03:41:45.444Z,99634.46
2022-08-17T03:44:16.124Z,99639.81
2022-08-17T03:47:03.989Z,99640.98
2022-08-17T03:49:50.576Z,99643.48
2022-08-17T03:52:37.043Z,99642.64
2022-08-17T03:55:29.445Z,99648.98
2022-08-17T03:57:54.318Z,99650.83
2022-08-17T04:00:23.045Z,99646.98
2022-08-17T04:02:52.042Z,99649.48
2022-08-17T04:05:21.406Z,99654.16
2022-08-17T04:07:51.832Z,99657.51
2022-08-17T04:10:24.695Z,99660.69
2022-08-17T04:12:53.001Z,99658.81
2022-08-17T04:15:22.473Z,99651.47
2022-08-17T04:17:51.344Z,99652.80
2022-08-17T04:20:21.941Z,99656.98
2022-08-17T04:22:58.375Z,99658.48
2022-08-17T04:25:27.445Z,99660.98
2022-08-17T04:27:56.383Z,99667.38
2022-08-17T04:30:25.651Z,99668.20
2022-08-17T04:33:06.170Z,99670.84
2022-08-17T04:35:33.437Z,99675.35
2022-08-17T04:38:02.172Z,99677.02
2022-08-17T04:40:49.011Z,99680.98
2022-08-17T04:43:19.244Z,99687.50
2022-08-17T04:45:55.566Z,99681.47
2022-08-17T04:48:20.927Z,99678.46
2022-08-17T04:50:50.501Z,99680.59
2022-08-17T04:53:20.033Z,99676.98
2022-08-17T04:55:49.401Z,99679.67
2022-08-17T04:58:18.157Z,99682.30
2022-08-17T05:00:48.148Z,99682.34
2022-08-17T05:03:17.084Z,99676.57
2022-08-17T05:05:47.443Z,99675.77
2022-08-17T05:08:18.084Z,99677.66
2022-08-17T05:10:47.373Z,99671.23
2022-08-17T05:13:17.613Z,99675.68
2022-08-17T05:15:47.719Z,99676.30
2022-08-17T05:18:17.641Z,99680.03
2022-08-17T05:20:48.750Z,99681.37
2022-08-17T05:23:18.475Z,99672.13
2022-08-17T05:25:48.674Z,99669.58
2022-08-17T05:28:23.502Z,99668.34
2022-08-17T05:30:52.000Z,99671.21
2022-08-17T05:33:22.953Z,99663.84
2022-08-17T05:35:53.263Z,99662.50
2022-08-17T05:38:23.782Z,99667.34
2022-08-17T05:40:52.916Z,99663.09
2022-08-17T05:43:26.192Z,99656.92
2022-08-17T05:46:02.357Z,99660.81
2022-08-17T05:48:39.592Z,99661.97
2022-08-17T05:51:10.683Z,99666.02
2022-08-17T05:53:43.874Z,99665.50
2022-08-17T05:56:29.890Z,99667.06
2022-08-17T05:58:54.275Z,99667.63
2022-08-17T06:01:41.047Z,99669.91
2022-08-17T06:04:17.200Z,99668.86
2022-08-17T06:06:47.462Z,99670.65
2022-08-17T06:09:28.903Z,99679.48
2022-08-17T06:11:58.933Z,99676.48
2022-08-17T06:14:33.236Z,99680.27
2022-08-17T06:17:03.494Z,99675.44
2022-08-17T06:19:53.170Z,99678.41
2022-08-17T06:22:23.494Z,99681.02
2022-08-17T06:24:57.097Z,99672.25
2022-08-17T06:27:45.672Z,99675.88
2022-08-17T06:30:27.729Z,99679.08
2022-08-17T06:33:00.495Z,99685.29
2022-08-17T06:35:36.481Z,99685.33
2022-08-17T06:38:07.289Z,99687.03
2022-08-17T06:40:55.229Z,99692.30
2022-08-17T06:43:46.153Z,99688.67
2022-08-17T06:46:19.826Z,99692.12
2022-08-17T06:48:50.085Z,99694.83
2022-08-17T06:51:29.312Z,99692.12
2022-08-17T06:54:02.578Z,99688.72
2022-08-17T06:56:54.472Z,99692.56
2022-08-17T06:59:05.318Z,99698.58
2022-08-17T07:01:35.703Z,99698.72
2022-08-17T07:04:11.832Z,99703.03
2022-08-17T07:06:44.848Z,99701.90
2022-08-17T07:09:33.282Z,99705.62
2022-08-17T07:12:06.705Z,99706.72
2022-08-17T07:14:37.891Z,99706.81
2022-08-17T07:17:11.503Z,99702.44
2022-08-17T07:19:41.506Z,99707.78
2022-08-17T07:22:20.918Z,99707.50
2022-08-17T07:24:58.332Z,99706.23
2022-08-17T07:27:28.650Z,99717.95
2022-08-17T07:30:10.319Z,99713.77
2022-08-17T07:32:37.900Z,99717.65
2022-08-17T07:35:15.361Z,99722.47
2022-08-17T07:37:45.827Z,99720.81
2022-08-17T07:40:19.121Z,99724.69
2022-08-17T07:43:07.884Z,99724.39
2022-08-17T07:45:58.051Z,99723.95
2022-08-17T07:48:27.582Z,99720.48
2022-08-17T07:50:58.486Z,99720.58
2022-08-17T07:53:27.909Z,99717.39
2022-08-17T07:55:56.733Z,99717.87
2022-08-17T07:58:26.565Z,99721.08
2022-08-17T08:01:04.174Z,99725.95
2022-08-17T08:03:34.172Z,99719.37
2022-08-17T08:06:04.084Z,99720.69
2022-08-17T08:08:34.425Z,99716.67
2022-08-17T08:11:04.660Z,99717.19
2022-08-17T08:13:34.607Z,99710.13
2022-08-17T08:16:14.460Z,99712.22
2022-08-17T08:18:54.369Z,99715.45
2022-08-17T08:21:21.287Z,99710.86
2022-08-17T08:24:03.555Z,99712.08
2022-08-17T08:26:36.926Z,99703.91
2022-08-17T08:29:17.824Z,99711.27
2022-08-17T08:31:54.524Z,99714.45
2022-08-17T08:35:00.591Z,99709.45
2022-08-17T08:37:14.596Z,99710.56
2022-08-17T08:39:39.714Z,99716.05
2022-08-17T08:42:11.518Z,99710.60
2022-08-17T08:45:00.064Z,99719.02
2022-08-17T08:47:18.192Z,99715.02
2022-08-17T08:50:06.683Z,99713.38
2022-08-17T08:52:27.060Z,99721.27
2022-08-17T08:54:57.301Z,99720.86
2022-08-17T08:57:33.963Z,99719.06
2022-08-17T09:00:03.154Z,99719.39
2022-08-17T09:02:36.101Z,99708.81
2022-08-17T09:05:14.183Z,99713.27
2022-08-17T09:07:42.175Z,99710.30
2022-08-17T09:10:15.124Z,99710.42
2022-08-17T09:12:51.084Z,99702.69
2022-08-17T09:15:31.766Z,99704.69
2022-08-17T09:18:59.318Z,99700.50
2022-08-17T09:20:33.894Z,99711.45
2022-08-17T09:23:09.107Z,99711.94
2022-08-17T09:25:41.490Z,99716.52
2022-08-17T09:28:12.608Z,99705.83
2022-08-17T09:30:48.828Z,99703.64
2022-08-17T09:33:19.231Z,99706.03
2022-08-17T09:35:49.486Z,99699.25
2022-08-17T09:38:19.727Z,99708.33
2022-08-17T09:40:55.972Z,99706.48
2022-08-17T09:43:26.227Z,99698.16
2022-08-17T09:45:57.432Z,99705.97
2022-08-17T09:48:33.542Z,99710.95
2022-08-17T09:51:06.604Z,99703.25
2022-08-17T09:53:35.737Z,99706.11
2022-08-17T09:56:09.057Z,99709.98
2022-08-17T09:58:48.576Z,99708.06
2022-08-17T10:01:31.728Z,99709.94
2022-08-17T10:04:04.786Z,99707.75
2022-08-17T10:06:36.070Z,99708.03
2022-08-17T10:09:10.086Z,99704.97
2022-08-17T10:12:01.235Z,99691.73
2022-08-17T10:14:44.198Z,99698.32
2022-08-17T10:17:27.261Z,99701.62
2022-08-17T10:20:04.068Z,99708.32
2022-08-17T10:22:54.947Z,99702.53
2022-08-17T10:25:56.737Z,99706.95
2022-08-17T10:28:19.769Z,99701.13
2022-08-17T10:30:45.048Z,99709.00
2022-08-17T10:33:15.472Z,99710.04
2022-08-17T10:35:52.865Z,99708.66
2022-08-17T10:38:33.530Z,99706.24
2022-08-17T10:41:07.149Z,99707.75
2022-08-17T10:44:35.407Z,99706.03
2022-08-17T10:46:30.602Z,99712.42
2022-08-17T10:48:50.032Z,99707.90
2022-08-17T10:51:38.618Z,99704.06
2022-08-17T10:54:08.054Z,99704.14
2022-08-17T10:56:41.281Z,99702.95
2022-08-17T10:59:10.034Z,99709.50
2022-08-17T11:01:42.135Z,99703.95
2022-08-17T11:04:12.396Z,99714.56
2022-08-17T11:07:03.291Z,99715.19
2022-08-17T11:09:33.875Z,99711.06
2022-08-17T11:12:05.783Z,99707.40
2022-08-17T11:14:48.002Z,99699.83
2022-08-17T11:17:24.282Z,99700.08
2022-08-17T11:20:00.227Z,99696.23
2022-08-17T11:22:34.130Z,99699.75
2022-08-17T11:25:16.369Z,99693.23
2022-08-17T11:27:48.533Z,99690.73
2022-08-17T11:30:18.779Z,99687.39
2022-08-17T11:32:51.989Z,99685.84
2022-08-17T11:35:21.807Z,99683.95
2022-08-17T11:38:14.069Z,99689.39
2022-08-17T11:40:57.628Z,99682.55
2022-08-17T11:43:30.802Z,99679.26
2022-08-17T11:46:10.062Z,99678.15
2022-08-17T11:49:10.394Z,99682.13
2022-08-17T11:51:56.482Z,99672.56
2022-08-17T11:54:36.297Z,99676.39
2022-08-17T11:57:23.158Z,99674.34
2022-08-17T11:59:55.814Z,99665.40
2022-08-17T12:02:35.136Z,99662.00
2022-08-17T12:05:14.521Z,99660.30
2022-08-17T12:07:52.030Z,99665.00
2022-08-17T12:10:22.542Z,99658.84
2022-08-17T12:12:52.790Z,99658.59
2022-08-17T12:15:24.606Z,99657.95
2022-08-17T12:17:55.208Z,99655.17
2022-08-17T12:20:34.692Z,99661.45
2022-08-17T12:23:05.395Z,99663.20
2022-08-17T12:25:35.977Z,99656.22
2022-08-17T12:28:07.892Z,99659.52
2022-08-17T12:30:36.974Z,99652.63
2022-08-17T12:33:07.203Z,99650.95
2022-08-17T12:35:39.034Z,99654.45
2022-08-17T12:38:26.894Z,99656.89
2022-08-17T12:40:40.293Z,99661.78
2022-08-17T12:43:11.392Z,99664.36
2022-08-17T12:45:40.604Z,99665.09
2022-08-17T12:48:11.088Z,99660.46
2022-08-17T12:50:41.862Z,99661.88
2022-08-17T12:53:15.821Z,99658.40
2022-08-17T12:55:45.041Z,99665.24
2022-08-17T12:58:15.313Z,99662.08
2022-08-17T13:00:47.545Z,99654.53
2022-08-17T13:03:19.247Z,99655.46
2022-08-17T13:05:55.481Z,99652.94
2022-08-17T13:08:26.999Z,99650.25
2022-08-17T13:10:58.303Z,99647.02
2022-08-17T13:13:28.808Z,99642.01
2022-08-17T13:16:02.009Z,99641.39
2022-08-17T13:18:35.316Z,99641.95
2022-08-17T13:21:04.138Z,99639.99
2022-08-17T13:23:33.531Z,99652.18
2022-08-17T13:26:06.519Z,99637.16
2022-08-17T13:28:37.402Z,99642.27
2022-08-17T13:31:16.937Z,99640.27
2022-08-17T13:33:46.341Z,99641.38
2022-08-17T13:36:19.485Z,99636.94
2022-08-17T13:38:50.729Z,99646.45
2022-08-17T13:41:33.668Z,99641.63
2022-08-17T13:44:04.364Z,99636.14
2022-08-17T13:46:33.847Z,99633.94
2022-08-17T13:49:04.548Z,99638.72
2022-08-17T13:51:46.563Z,99640.28
2022-08-17T13:54:19.896Z,99635.17
2022-08-17T13:56:57.365Z,99634.36
2022-08-17T13:59:53.856Z,99635.43
2022-08-17T14:02:02.680Z,99632.58
2022-08-17T14:04:32.379Z,99638.02
2022-08-17T14:07:05.655Z,99628.73
2022-08-17T14:09:37.403Z,99633.08
2022-08-17T14:12:08.600Z,99632.38
2022-08-17T14:14:37.999Z,99622.38
2022-08-17T14:17:07.963Z,99622.70
2022-08-17T14:19:37.086Z,99625.91
2022-08-17T14:22:12.175Z,99625.54
2022-08-17T14:24:44.816Z,99624.09
2022-08-17T14:27:13.551Z,99624.75
2022-08-17T14:29:42.527Z,99623.88
2022-08-17T14:32:18.598Z,99622.02
2022-08-17T14:34:49.631Z,99621.95
2022-08-17T14:37:19.399Z,99621.06
2022-08-17T14:39:49.633Z,99615.84
2022-08-17T14:42:18.467Z,99613.28
2022-08-17T14:44:47.223Z,99620.72
2022-08-17T14:47:16.196Z,99621.31
2022-08-17T14:49:47.681Z,99615.56
2022-08-17T14:52:19.496Z,99620.04
2022-08-17T14:54:51.354Z,99625.52
2022-08-17T14:57:33.294Z,99621.14
2022-08-17T14:59:55.053Z,99624.18
2022-08-17T15:02:30.234Z,99628.54
2022-08-17T15:05:01.966Z,99624.97
2022-08-17T15:07:31.492Z,99626.89
2022-08-17T15:10:02.118Z,99629.09
2022-08-17T15:12:33.813Z,99627.15
2022-08-17T15:15:04.993Z,99628.75
2022-08-17T15:17:45.149Z,99630.73
2022-08-17T15:20:11.430Z,99630.98
2022-08-17T15:22:40.128Z,99626.62
2022-08-17T15:25:10.601Z,99626.88
2022-08-17T15:27:40.303Z,99623.32
2022-08-17T15:30:10.063Z,99618.65
2022-08-17T15:32:40.903Z,99616.52
2022-08-17T15:35:13.879Z,99615.67
2022-08-17T15:37:43.633Z,99625.00
2022-08-17T15:40:13.005Z,99624.95
2022-08-17T15:42:41.771Z,99623.31
2022-08-17T15:45:12.281Z,99628.25
2022-08-17T15:47:42.687Z,99627.42
2022-08-17T15:50:11.817Z,99627.97
2022-08-17T15:52:45.016Z,99629.36
2022-08-17T15:55:15.839Z,99629.34
2022-08-17T15:57:45.348Z,99636.75
2022-08-17T16:00:14.150Z,99630.14
2022-08-17T16:03:46.978Z,99643.66
2022-08-17T16:05:15.587Z,99632.89
2022-08-17T16:07:45.930Z,99628.81
2022-08-17T16:10:18.793Z,99628.80
2022-08-17T16:12:46.380Z,99622.77
2022-08-17T16:15:16.257Z,99628.83
2022-08-17T16:17:44.965Z,99629.65
2022-08-17T16:20:20.148Z,99633.45
2022-08-17T16:22:46.628Z,99638.84
2022-08-17T16:25:17.688Z,99636.46
2022-08-17T16:27:47.805Z,99631.25
2022-08-17T16:30:17.848Z,99628.23
2022-08-17T16:32:52.914Z,99635.82
2022-08-17T16:35:24.749Z,99632.73
2022-08-17T16:37:57.206Z,99634.55
2022-08-17T16:40:27.684Z,99632.56
2022-08-17T16:42:57.759Z,99629.59
2022-08-17T16:45:28.552Z,99625.58
2022-08-17T16:47:59.209Z,99636.42
2022-08-17T16:50:27.960Z,99631.08
2022-08-17T16:52:58.232Z,99629.55
2022-08-17T16:55:27.083Z,99626.88
2022-08-17T16:57:56.316Z,99628.84
2022-08-17T17:00:25.041Z,99635.48
2022-08-17T17:02:55.777Z,99629.38
2022-08-17T17:05:28.924Z,99634.94
2022-08-17T17:08:12.778Z,99627.72
2022-08-17T17:10:43.043Z,99628.34
2022-08-17T17:13:13.291Z,99627.65
2022-08-17T17:15:43.559Z,99622.64
2022-08-17T17:18:14.731Z,99619.34
2022-08-17T17:20:50.815Z,99624.80
2022-08-17T17:23:21.186Z,99625.00
2022-08-17T17:25:51.532Z,99618.64
2022-08-17T17:28:23.439Z,99624.12
2022-08-17T17:31:02.887Z,99620.84
2022-08-17T17:33:34.106Z,99631.35
2022-08-17T17:36:08.314Z,99634.17
2022-08-17T17:38:41.769Z,99627.48
2022-08-17T17:41:12.030Z,99626.02
2022-08-17T17:43:41.601Z,99621.09
2022-08-17T17:46:28.436Z,99624.45
2022-08-17T17:48:52.043Z,99621.86
2022-08-17T17:52:06.566Z,99630.66
2022-08-17T17:53:54.398Z,99630.98
2022-08-17T17:56:43.994Z,99636.64
2022-08-17T17:58:56.664Z,99635.01
2022-08-17T18:01:42.137Z,99631.38
2022-08-17T18:04:20.707Z,99643.52
2022-08-17T18:06:47.170Z,99645.72
2022-08-17T18:09:23.376Z,99639.20
2022-08-17T18:11:59.427Z,99637.23
2022-08-17T18:14:29.785Z,99631.97
2022-08-17T18:16:59.993Z,99627.17
2022-08-17T18:19:30.392Z,99638.83
2022-08-17T18:22:14.556Z,99641.46
2022-08-17T18:24:41.354Z,99645.95
2022-08-17T18:27:23.647Z,99643.37
2022-08-17T18:29:54.018Z,99643.66
2022-08-17T18:32:27.165Z,99643.18
2022-08-17T18:35:00.342Z,99642.70
2022-08-17T18:37:33.815Z,99643.05
2022-08-17T18:40:04.141Z,99641.66
2022-08-17T18:42:33.078Z,99647.57
2022-08-17T18:45:01.985Z,99646.34
2022-08-17T18:47:30.768Z,99647.42
2022-08-17T18:50:02.483Z,99647.52
2022-08-17T18:52:32.859Z,99654.21
2022-08-17T18:55:08.594Z,99655.16
2022-08-17T18:57:40.021Z,99661.77
2022-08-17T19:00:14.296Z,99661.88
2022-08-17T19:02:51.014Z,99665.11
2022-08-17T19:05:21.364Z,99654.56
2022-08-17T19:07:50.359Z,99656.98
2022-08-17T19:10:23.687Z,99665.23
2022-08-17T19:12:54.108Z,99667.11
2022-08-17T19:15:26.030Z,99665.05
2022-08-17T19:18:13.343Z,99665.67
2022-08-17T19:20:40.574Z,99678.91
2022-08-17T19:23:19.010Z,99672.98
2022-08-17T19:25:49.409Z,99676.23
2022-08-17T19:28:22.630Z,99679.83
2022-08-17T19:30:53.231Z,99677.12
2022-08-17T19:33:25.056Z,99685.25
2022-08-17T19:36:01.538Z,99691.66
2022-08-17T19:38:33.009Z,99699.97
2022-08-17T19:41:03.384Z,99697.86
2022-08-17T19:43:47.652Z,99705.64
2022-08-17T19:46:18.014Z,99700.98
2022-08-17T19:49:04.672Z,99699.84
2022-08-17T19:51:40.896Z,99698.43
2022-08-17T19:54:18.284Z,99706.70
2022-08-17T19:56:55.572Z,99706.58
2022-08-17T19:59:45.353Z,99705.95
2022-08-17T20:02:15.609Z,99705.23
2022-08-17T20:04:45.800Z,99703.67
2022-08-17T20:07:25.274Z,99703.15
2022-08-17T20:10:01.805Z,99697.63
2022-08-17T20:12:32.064Z,99693.53
2022-08-17T20:15:08.191Z,99688.66
2022-08-17T20:17:41.403Z,99685.92
2022-08-17T20:20:19.342Z,99685.48
2022-08-17T20:22:52.216Z,99681.13
2022-08-17T20:25:18.358Z,99691.19
2022-08-17T20:27:50.314Z,99685.56
2022-08-17T20:30:26.557Z,99684.05
2022-08-17T20:32:57.173Z,99686.63
2022-08-17T20:35:36.400Z,99684.56
2022-08-17T20:38:06.879Z,99687.65
2022-08-17T20:40:37.132Z,99692.31
2022-08-17T20:43:25.098Z,99690.57
2022-08-17T20:45:55.348Z,99684.82
2022-08-17T20:48:42.607Z,99681.69
2022-08-17T20:51:00.658Z,99682.18
2022-08-17T20:53:46.197Z,99674.69
2022-08-17T20:56:32.996Z,99670.60
2022-08-17T20:59:01.817Z,99673.36
2022-08-17T21:01:39.611Z,99676.89
2022-08-17T21:04:12.871Z,99673.55
2022-08-17T21:06:43.097Z,99669.75
2022-08-17T21:09:13.352Z,99672.63
2022-08-17T21:12:00.000Z,99672.38
2022-08-17T21:14:20.966Z,99661.56
2022-08-17T21:16:55.374Z,99662.97
2022-08-17T21:19:31.125Z,99671.88
2022-08-17T21:22:02.484Z,99663.04
2022-08-17T21:24:36.624Z,99664.23
2022-08-17T21:27:23.533Z,99661.03
2022-08-17T21:29:57.418Z,99666.44
2022-08-17T21:32:30.734Z,99672.61
2022-08-17T21:35:13.553Z,99673.28
2022-08-17T21:37:44.388Z,99676.89
2022-08-17T21:40:19.903Z,99679.14
2022-08-17T21:42:58.054Z,99674.91
2022-08-17T21:45:28.487Z,99685.54
2022-08-17T21:48:07.869Z,99688.28
2022-08-17T21:50:36.869Z,99687.59
2022-08-17T21:53:07.129Z,99684.20
2022-08-17T21:55:36.837Z,99682.20
2022-08-17T21:58:13.649Z,99683.23
2022-08-17T22:00:40.649Z,99677.16
2022-08-17T22:03:11.332Z,99684.06
2022-08-17T22:05:41.135Z,99684.63
2022-08-17T22:08:16.997Z,99688.02
2022-08-17T22:10:48.430Z,99693.40
2022-08-17T22:13:24.809Z,99691.98
2022-08-17T22:16:15.663Z,99694.16
2022-08-17T22:18:40.315Z,99693.28
2022-08-17T22:21:09.597Z,99695.00
2022-08-17T22:23:57.929Z,99697.37
2022-08-17T22:26:28.215Z,99699.36
2022-08-17T22:28:58.234Z,99698.33
2022-08-17T22:31:28.588Z,99706.08
2022-08-17T22:34:01.838Z,99704.09
2022-08-17T22:36:35.061Z,99713.06
2022-08-17T22:39:11.432Z,99714.41
2022-08-17T22:41:50.589Z,99708.89
2022-08-17T22:44:24.136Z,99708.76
2022-08-17T22:46:57.473Z,99708.44
2022-08-17T22:49:29.339Z,99712.84
2022-08-17T22:52:05.539Z,99717.44
2022-08-17T22:54:52.044Z,99713.78
2022-08-17T22:57:40.023Z,99719.11
2022-08-17T23:00:10.381Z,99722.49
2022-08-17T23:02:48.099Z,99722.86
2022-08-17T23:05:15.807Z,99730.97
2022-08-17T23:07:46.063Z,99732.50
2022-08-17T23:10:16.212Z,99737.92
2022-08-17T23:12:46.171Z,99736.06
2022-08-17T23:15:16.391Z,99739.95
2022-08-17T23:17:45.812Z,99741.77
2022-08-17T23:20:15.904Z,99744.36
2022-08-17T23:22:51.710Z,99735.17
2022-08-17T23:25:17.680Z,99734.34
2022-08-17T23:27:48.787Z,99725.13
2022-08-17T23:30:17.963Z,99728.14
2022-08-17T23:32:53.964Z,99726.19
2022-08-17T23:35:18.781Z,99731.93
2022-08-17T23:37:47.521Z,99725.22
2022-08-17T23:40:16.651Z,99721.06
2022-08-17T23:42:46.452Z,99726.69
2022-08-17T23:45:16.535Z,99726.77
2022-08-17T23:47:46.746Z,99722.79
2022-08-17T23:50:15.948Z,99727.83
2022-08-17T23:52:46.789Z,99730.62
2022-08-17T23:55:15.627Z,99736.17
2022-08-17T23:57:44.429Z,99734.03
